Time;durP1;ratioP1;P1;durP2;ratioP2;P2;SDS_P1;SDS_P2;PMS_P1;PMS_P2;Temp;Humidity;BMP_temperature;BMP_pressure;BME280_temperature;BME280_humidity;BME280_pressure;Samples;Min_cycle;Max_cycle;Signal;HPM_P1;HPM_P2
2022/09/13 00:00:45;;;;;;;;;;;;;;;;;;5065508;28;19916;-76
2022/09/13 00:03:32;;;;;;;;;;;;;;;;;;5080688;28;20324;-76
2022/09/13 00:06:18;;;;;;;;;;;;;;;;;;5066521;28;19923;-76
2022/09/13 00:09:04;;;;;;;;;;;;;;;;;;5087682;28;19916;-76
2022/09/13 00:11:51;;;;;;;;;;;;;;;;;;5090233;28;19916;-76
2022/09/13 00:14:37;;;;;;;;;;;;;;;;;;5074082;28;19908;-76
2022/09/13 00:17:24;;;;;;;;;;;;;;;;;;5087195;28;19915;-76
2022/09/13 00:20:10;;;;;;;;;;;;;;;;;;5082847;28;19912;-77
2022/09/13 00:22:57;;;;;;;;;;;;;;;;;;5102397;28;19926;-76
2022/09/13 00:25:43;;;;;;;;;;;;;;;;;;5104789;28;19911;-76
2022/09/13 00:28:30;;;;;;;;;;;;;;;;;;5113784;28;20243;-75
2022/09/13 00:31:16;;;;;;;;;;;;;;;;;;5104014;28;19919;-75
2022/09/13 00:34:03;;;;;;;;;;;;;;;;;;5097388;28;19916;-75
2022/09/13 00:36:49;;;;;;;;;;;;;;;;;;5115742;28;19912;-75
2022/09/13 00:39:35;;;;;;;;;;;;;;;;;;5117181;28;19912;-76
2022/09/13 00:42:22;;;;;;;;;;;;;;;;;;5115167;27;19908;-76
2022/09/13 00:45:08;;;;;;;;;;;;;;;;;;5124014;27;19912;-76
2022/09/13 00:47:56;;;;;;;;;;;;;;;;;;5123822;27;19908;-77
2022/09/13 00:50:42;;;;;;;;;;;;;;;;;;5105603;28;19908;-76
2022/09/13 00:53:29;;;;;;;;;;;;;;;;;;5093600;28;19931;-76
2022/09/13 00:56:15;;;;;;;;;;;;;;;;;;5106372;28;19908;-76
2022/09/13 00:59:02;;;;;;;;;;;;;;;;;;5102563;27;20360;-76
2022/09/13 01:01:48;;;;;;;;;;;;;;;;;;5112943;27;20429;-76
2022/09/13 01:04:35;;;;;;;;;;;;;;;;;;5102123;28;19919;-75
2022/09/13 01:07:22;;;;;;;;;;;;;;;;;;5108549;27;19907;-76
2022/09/13 01:10:08;;;;;;;;;;;;;;;;;;5100708;27;20401;-75
2022/09/13 01:12:55;;;;;;;;;;;;;;;;;;5096590;28;19939;-75
2022/09/13 01:15:41;;;;;;;;;;;;;;;;;;5126430;27;19912;-76
2022/09/13 01:18:28;;;;;;;;;;;;;;;;;;5093906;28;19933;-75
2022/09/13 01:21:14;;;;;;;;;;;;;;;;;;5112276;27;20388;-75
2022/09/13 01:24:00;;;;;;;;;;;;;;;;;;5097814;27;19914;-76
2022/09/13 01:26:47;;;;;;;;;;;;;;;;;;5096812;28;19942;-76
2022/09/13 01:29:33;;;;;;;;;;;;;;;;;;5110264;28;20375;-76
2022/09/13 01:32:20;;;;;;;;;;;;;;;;;;5091888;28;19922;-76
2022/09/13 01:35:06;;;;;;;;;;;;;;;;;;5111377;28;20001;-76
2022/09/13 01:37:53;;;;;;;;;;;;;;;;;;5109962;27;19915;-76
2022/09/13 01:40:42;;;;;;;;;;;;;;;;;;5104021;27;19912;-75
2022/09/13 01:43:30;;;;;;;;;;;;;;;;;;5103870;27;19919;-77
2022/09/13 01:46:16;;;;;;;;;;;;;;;;;;5104192;27;20286;-76
2022/09/13 01:49:03;;;;;;;;;;;;;;;;;;5095653;28;19919;-77
2022/09/13 01:51:49;;;;;;;;;;;;;;;;;;5113908;27;19928;-76
2022/09/13 01:54:36;;;;;;;;;;;;;;;;;;5110729;27;19912;-76
2022/09/13 01:57:22;;;;;;;;;;;;;;;;;;5107044;27;19912;-76
2022/09/13 02:00:09;;;;;;;;;;;;;;;;;;5101423;27;19912;-76
2022/09/13 02:02:55;;;;;;;;;;;;;;;;;;5108826;27;19907;-76
2022/09/13 02:05:42;;;;;;;;;;;;;;;;;;5102563;27;20367;-76
2022/09/13 02:08:29;;;;;;;;;;;;;;;;;;5097427;27;19916;-75
2022/09/13 02:11:16;;;;;;;;;;;;;;;;;;5106065;27;19916;-75
2022/09/13 02:14:02;;;;;;;;;;;;;;;;;;5100309;27;19924;-75
2022/09/13 02:16:49;;;;;;;;;;;;;;;;;;5101192;27;19912;-75
2022/09/13 02:19:36;;;;;;;;;;;;;;;;;;5101088;27;19908;-75
2022/09/13 02:22:23;;;;;;;;;;;;;;;;;;5099068;27;19920;-76
2022/09/13 02:25:09;;;;;;;;;;;;;;;;;;5099344;27;19915;-75
2022/09/13 02:27:57;;;;;;;;;;;;;;;;;;5099959;27;19987;-76
2022/09/13 02:30:44;;;;;;;;;;;;;;;;;;5100655;27;19912;-76
2022/09/13 02:33:30;;;;;;;;;;;;;;;;;;5101742;27;19920;-76
2022/09/13 02:36:17;;;;;;;;;;;;;;;;;;5092721;28;19915;-76
2022/09/13 02:39:03;;;;;;;;;;;;;;;;;;5112672;27;19912;-77
2022/09/13 02:41:50;;;;;;;;;;;;;;;;;;5100841;27;20371;-76
2022/09/13 02:44:36;;;;;;;;;;;;;;;;;;5101628;28;19918;-76
2022/09/13 02:47:23;;;;;;;;;;;;;;;;;;5097638;27;20270;-76
2022/09/13 02:50:09;;;;;;;;;;;;;;;;;;5102818;27;20022;-76
2022/09/13 02:52:55;;;;;;;;;;;;;;;;;;5092609;27;20374;-76
2022/09/13 02:55:42;;;;;;;;;;;;;;;;;;5097176;27;19919;-76
2022/09/13 02:58:29;;;;;;;;;;;;;;;;;;5108865;27;19914;-76
2022/09/13 03:01:16;;;;;;;;;;;;;;;;;;5098107;27;19908;-76
2022/09/13 03:04:02;;;;;;;;;;;;;;;;;;5104024;28;19911;-76
2022/09/13 03:06:49;;;;;;;;;;;;;;;;;;5107488;28;19920;-76
2022/09/13 03:09:35;;;;;;;;;;;;;;;;;;5103904;27;19935;-77
2022/09/13 03:12:26;;;;;;;;;;;;;;;;;;5097858;28;19916;-76
2022/09/13 03:15:12;;;;;;;;;;;;;;;;;;5107902;27;19916;-76
2022/09/13 03:17:59;;;;;;;;;;;;;;;;;;5103493;27;19920;-77
2022/09/13 03:20:46;;;;;;;;;;;;;;;;;;5106779;27;19946;-76
2022/09/13 03:23:32;;;;;;;;;;;;;;;;;;5104830;27;19924;-77
2022/09/13 03:26:19;;;;;;;;;;;;;;;;;;5099045;27;19908;-77
2022/09/13 03:29:05;;;;;;;;;;;;;;;;;;5104836;27;19912;-77
2022/09/13 03:31:51;;;;;;;;;;;;;;;;;;5092686;27;20610;-75
2022/09/13 03:34:38;;;;;;;;;;;;;;;;;;5104871;28;19924;-75
2022/09/13 03:37:24;;;;;;;;;;;;;;;;;;5101410;28;19912;-75
2022/09/13 03:40:11;;;;;;;;;;;;;;;;;;5099373;27;19908;-76
2022/09/13 03:42:57;;;;;;;;;;;;;;;;;;5089463;28;19908;-76
2022/09/13 03:45:44;;;;;;;;;;;;;;;;;;5107727;28;19916;-75
2022/09/13 03:48:30;;;;;;;;;;;;;;;;;;5106569;28;19923;-75
2022/09/13 03:51:17;;;;;;;;;;;;;;;;;;5090014;28;19908;-75
2022/09/13 03:54:03;;;;;;;;;;;;;;;;;;5102328;27;19924;-75
2022/09/13 03:56:50;;;;;;;;;;;;;;;;;;5103251;28;19912;-75
2022/09/13 03:59:37;;;;;;;;;;;;;;;;;;5095235;28;19912;-75
2022/09/13 04:02:24;;;;;;;;;;;;;;;;;;5099105;28;20255;-76
2022/09/13 04:05:10;;;;;;;;;;;;;;;;;;5113883;27;19946;-75
2022/09/13 04:07:56;;;;;;;;;;;;;;;;;;5100925;28;20371;-76
2022/09/13 04:10:43;;;;;;;;;;;;;;;;;;5108812;28;19908;-77
2022/09/13 04:13:29;;;;;;;;;;;;;;;;;;5102163;28;19921;-75
2022/09/13 04:16:16;;;;;;;;;;;;;;;;;;5104472;27;19931;-76
2022/09/13 04:19:03;;;;;;;;;;;;;;;;;;5100741;27;19915;-76
2022/09/13 04:21:49;;;;;;;;;;;;;;;;;;5104404;27;19930;-76
2022/09/13 04:24:37;;;;;;;;;;;;;;;;;;5099983;27;19915;-77
2022/09/13 04:27:24;;;;;;;;;;;;;;;;;;5107913;27;19908;-75
2022/09/13 04:30:11;;;;;;;;;;;;;;;;;;5106360;27;19914;-75
2022/09/13 04:32:58;;;;;;;;;;;;;;;;;;5117988;27;19927;-75
2022/09/13 04:35:48;;;;;;;;;;;;;;;;;;5119889;27;19958;-77
2022/09/13 04:38:36;;;;;;;;;;;;;;;;;;5131378;27;19908;-75
2022/09/13 04:41:22;;;;;;;;;;;;;;;;;;5102859;27;19915;-76
2022/09/13 04:44:09;;;;;;;;;;;;;;;;;;5107757;27;19915;-76
2022/09/13 04:46:55;;;;;;;;;;;;;;;;;;5101986;27;19912;-77
2022/09/13 04:49:41;;;;;;;;;;;;;;;;;;5095735;27;19912;-77
2022/09/13 04:52:28;;;;;;;;;;;;;;;;;;5104908;27;19923;-77
2022/09/13 04:55:14;;;;;;;;;;;;;;;;;;5105562;27;19918;-76
2022/09/13 04:58:02;;;;;;;;;;;;;;;;;;5108187;27;19915;-76
2022/09/13 05:00:50;;;;;;;;;;;;;;;;;;5106469;27;19916;-76
2022/09/13 05:03:36;;;;;;;;;;;;;;;;;;5107242;27;19912;-78
2022/09/13 05:06:23;;;;;;;;;;;;;;;;;;5114205;27;20518;-78
2022/09/13 05:09:09;;;;;;;;;;;;;;;;;;5116035;27;19939;-78
2022/09/13 05:11:56;;;;;;;;;;;;;;;;;;5106511;28;19912;-77
2022/09/13 05:14:42;;;;;;;;;;;;;;;;;;5112756;27;20563;-78
2022/09/13 05:17:29;;;;;;;;;;;;;;;;;;5096590;27;19908;-77
2022/09/13 05:20:15;;;;;;;;;;;;;;;;;;5110307;27;19930;-77
2022/09/13 05:23:02;;;;;;;;;;;;;;;;;;5111431;27;19924;-78
2022/09/13 05:25:48;;;;;;;;;;;;;;;;;;5098065;28;19907;-78
2022/09/13 05:28:35;;;;;;;;;;;;;;;;;;5108125;28;20251;-78
2022/09/13 05:31:23;;;;;;;;;;;;;;;;;;5095089;27;19909;-78
2022/09/13 05:34:09;;;;;;;;;;;;;;;;;;5094426;27;19930;-78
2022/09/13 05:36:56;;;;;;;;;;;;;;;;;;5094740;27;19935;-78
2022/09/13 05:39:42;;;;;;;;;;;;;;;;;;5110257;27;19911;-79
2022/09/13 05:42:29;;;;;;;;;;;;;;;;;;5099247;28;19911;-77
2022/09/13 05:45:15;;;;;;;;;;;;;;;;;;5094411;27;19927;-78
2022/09/13 05:48:02;;;;;;;;;;;;;;;;;;5107576;27;19931;-78
2022/09/13 05:50:48;;;;;;;;;;;;;;;;;;5099356;27;19919;-77
2022/09/13 05:53:35;;;;;;;;;;;;;;;;;;5105268;27;19920;-78
2022/09/13 05:56:21;;;;;;;;;;;;;;;;;;5098376;27;19908;-76
2022/09/13 05:59:08;;;;;;;;;;;;;;;;;;5112836;27;19908;-77
2022/09/13 06:01:54;;;;;;;;;;;;;;;;;;5111184;27;19916;-77
2022/09/13 06:04:41;;;;;;;;;;;;;;;;;;5113799;27;19921;-77
2022/09/13 06:07:27;;;;;;;;;;;;;;;;;;5090589;27;19912;-77
2022/09/13 06:10:14;;;;;;;;;;;;;;;;;;5104212;28;19908;-78
2022/09/13 06:13:00;;;;;;;;;;;;;;;;;;5111292;27;19927;-78
2022/09/13 06:15:47;;;;;;;;;;;;;;;;;;5108942;27;19911;-77
2022/09/13 06:18:34;;;;;;;;;;;;;;;;;;5089582;27;20360;-77
2022/09/13 06:21:21;;;;;;;;;;;;;;;;;;5111040;27;19926;-77
2022/09/13 06:24:08;;;;;;;;;;;;;;;;;;5109837;27;20270;-77
2022/09/13 06:26:54;;;;;;;;;;;;;;;;;;5107906;27;20297;-78
2022/09/13 06:29:41;;;;;;;;;;;;;;;;;;5107835;27;19918;-77
2022/09/13 06:32:27;;;;;;;;;;;;;;;;;;5109535;27;19923;-77
2022/09/13 06:35:15;;;;;;;;;;;;;;;;;;5105977;27;19912;-78
2022/09/13 06:38:02;;;;;;;;;;;;;;;;;;5114939;27;19908;-77
2022/09/13 06:40:48;;;;;;;;;;;;;;;;;;5111621;27;19918;-78
2022/09/13 06:43:35;;;;;;;;;;;;;;;;;;5112941;27;19912;-77
2022/09/13 06:46:21;;;;;;;;;;;;;;;;;;5108945;27;20298;-78
2022/09/13 06:49:08;;;;;;;;;;;;;;;;;;5097148;27;19915;-78
2022/09/13 06:51:54;;;;;;;;;;;;;;;;;;5097267;27;20370;-78
2022/09/13 06:54:41;;;;;;;;;;;;;;;;;;5109525;27;19920;-78
2022/09/13 06:57:27;;;;;;;;;;;;;;;;;;5102165;27;20306;-77
2022/09/13 07:00:14;;;;;;;;;;;;;;;;;;5110063;27;19907;-78
2022/09/13 07:03:01;;;;;;;;;;;;;;;;;;5116145;27;19914;-77
2022/09/13 07:05:48;;;;;;;;;;;;;;;;;;5112251;27;19923;-78
2022/09/13 07:08:35;;;;;;;;;;;;;;;;;;5095415;28;19918;-78
2022/09/13 07:11:21;;;;;;;;;;;;;;;;;;5103792;28;19914;-78
2022/09/13 07:14:08;;;;;;;;;;;;;;;;;;5095937;27;19938;-77
2022/09/13 07:16:54;;;;;;;;;;;;;;;;;;5112342;27;19908;-77
2022/09/13 07:19:41;;;;;;;;;;;;;;;;;;5111115;27;19916;-78
2022/09/13 07:22:27;;;;;;;;;;;;;;;;;;5093402;27;19926;-77
2022/09/13 07:25:14;;;;;;;;;;;;;;;;;;5093280;28;19916;-77
2022/09/13 07:28:02;;;;;;;;;;;;;;;;;;5101587;27;20114;-77
2022/09/13 07:30:49;;;;;;;;;;;;;;;;;;5120146;27;19914;-77
2022/09/13 07:33:35;;;;;;;;;;;;;;;;;;5099084;27;19924;-78
2022/09/13 07:36:22;;;;;;;;;;;;;;;;;;5127747;27;19908;-78
2022/09/13 07:39:09;;;;;;;;;;;;;;;;;;5112978;27;19918;-77
2022/09/13 07:41:56;;;;;;;;;;;;;;;;;;5106495;27;19918;-77
2022/09/13 07:44:42;;;;;;;;;;;;;;;;;;5126217;27;20634;-77
2022/09/13 07:47:29;;;;;;;;;;;;;;;;;;5115569;27;19986;-77
2022/09/13 07:50:15;;;;;;;;;;;;;;;;;;5110151;27;19916;-78
2022/09/13 07:53:03;;;;;;;;;;;;;;;;;;5115501;27;19922;-77
2022/09/13 07:55:49;;;;;;;;;;;;;;;;;;5087802;28;20291;-77
2022/09/13 07:58:36;;;;;;;;;;;;;;;;;;5107274;28;19908;-77
2022/09/13 08:01:22;;;;;;;;;;;;;;;;;;5102006;28;19908;-77
2022/09/13 08:04:09;;;;;;;;;;;;;;;;;;5097210;28;19908;-77
2022/09/13 08:06:55;;;;;;;;;;;;;;;;;;5107409;28;19922;-77
2022/09/13 08:09:42;;;;;;;;;;;;;;;;;;5107122;28;19938;-77
2022/09/13 08:12:28;;;;;;;;;;;;;;;;;;5095380;28;19912;-78
2022/09/13 08:15:15;;;;;;;;;;;;;;;;;;5090007;28;19923;-77
2022/09/13 08:18:01;;;;;;;;;;;;;;;;;;5118657;28;19934;-77
2022/09/13 08:20:48;;;;;;;;;;;;;;;;;;5092119;28;19919;-77
2022/09/13 08:23:34;;;;;;;;;;;;;;;;;;5106320;28;19928;-77
2022/09/13 08:26:21;;;;;;;;;;;;;;;;;;5112433;28;19920;-77
2022/09/13 08:29:07;;;;;;;;;;;;;;;;;;5110443;28;19916;-77
2022/09/13 08:31:53;;;;;;;;;;;;;;;;;;5101199;28;20460;-77
2022/09/13 08:34:40;;;;;;;;;;;;;;;;;;5103980;28;19926;-78
2022/09/13 08:37:26;;;;;;;;;;;;;;;;;;5106132;28;19918;-78
2022/09/13 08:40:13;;;;;;;;;;;;;;;;;;5102012;28;19908;-78
2022/09/13 08:43:00;;;;;;;;;;;;;;;;;;5114849;28;19907;-77
2022/09/13 08:45:46;;;;;;;;;;;;;;;;;;5112466;28;19916;-78
2022/09/13 08:48:33;;;;;;;;;;;;;;;;;;5108531;28;19908;-77
2022/09/13 08:51:20;;;;;;;;;;;;;;;;;;5087861;28;19911;-77
2022/09/13 08:54:07;;;;;;;;;;;;;;;;;;5099245;28;19922;-78
2022/09/13 08:56:53;;;;;;;;;;;;;;;;;;5096317;28;20287;-77
2022/09/13 08:59:40;;;;;;;;;;;;;;;;;;5099356;28;20215;-78
2022/09/13 09:02:26;;;;;;;;;;;;;;;;;;5108613;28;19912;-77
2022/09/13 09:05:13;;;;;;;;;;;;;;;;;;5105039;27;19919;-78
2022/09/13 09:08:00;;;;;;;;;;;;;;;;;;5100251;28;19923;-78
2022/09/13 09:10:46;;;;;;;;;;;;;;;;;;5104354;28;20286;-77
2022/09/13 09:13:33;;;;;;;;;;;;;;;;;;5105729;28;19924;-77
2022/09/13 09:16:19;;;;;;;;;;;;;;;;;;5096085;27;19916;-78
2022/09/13 09:19:06;;;;;;;;;;;;;;;;;;5116303;27;19915;-77
2022/09/13 09:21:52;;;;;;;;;;;;;;;;;;5095579;28;20290;-76
2022/09/13 09:24:39;;;;;;;;;;;;;;;;;;5116970;27;20330;-76
2022/09/13 09:27:26;;;;;;;;;;;;;;;;;;5100368;27;20031;-75
2022/09/13 09:30:15;;;;;;;;;;;;;;;;;;5097917;27;19912;-75
2022/09/13 09:33:02;;;;;;;;;;;;;;;;;;5117550;27;19915;-76
2022/09/13 09:35:49;;;;;;;;;;;;;;;;;;5109460;28;19919;-76
2022/09/13 09:38:36;;;;;;;;;;;;;;;;;;5109994;27;19916;-76
2022/09/13 09:41:23;;;;;;;;;;;;;;;;;;5117977;27;19907;-76
2022/09/13 09:44:10;;;;;;;;;;;;;;;;;;5111804;27;19911;-76
2022/09/13 09:46:56;;;;;;;;;;;;;;;;;;5107758;27;20421;-76
2022/09/13 09:52:50;;;;;;;;;;;;;;;;;;5098234;27;19916;-76
2022/09/13 09:55:36;;;;;;;;;;;;;;;;;;5105441;27;20344;-76
2022/09/13 09:58:23;;;;;;;;;;;;;;;;;;5105743;27;19908;-75
2022/09/13 10:01:10;;;;;;;;;;;;;;;;;;5102552;27;19956;-76
2022/09/13 10:03:57;;;;;;;;;;;;;;;;;;5097918;27;19918;-80
2022/09/13 10:06:45;;;;;;;;;;;;;;;;;;5115874;27;19943;-75
2022/09/13 10:09:31;;;;;;;;;;;;;;;;;;5108938;27;19953;-76
2022/09/13 10:12:18;;;;;;;;;;;;;;;;;;5095141;27;19914;-76
2022/09/13 10:15:04;;;;;;;;;;;;;;;;;;5093702;27;19927;-77
2022/09/13 10:17:51;;;;;;;;;;;;;;;;;;5093823;27;19920;-77
2022/09/13 10:20:38;;;;;;;;;;;;;;;;;;5112737;27;19907;-76
2022/09/13 10:23:24;;;;;;;;;;;;;;;;;;5102359;27;19995;-77
2022/09/13 10:26:11;;;;;;;;;;;;;;;;;;5094977;27;20475;-76
2022/09/13 10:28:57;;;;;;;;;;;;;;;;;;5083916;28;20400;-77
2022/09/13 10:31:44;;;;;;;;;;;;;;;;;;5101528;28;19908;-76
2022/09/13 10:34:30;;;;;;;;;;;;;;;;;;5110486;27;19946;-76
2022/09/13 10:37:18;;;;;;;;;;;;;;;;;;5107200;28;19911;-76
2022/09/13 10:40:06;;;;;;;;;;;;;;;;;;5097459;27;20351;-76
2022/09/13 10:42:53;;;;;;;;;;;;;;;;;;5100848;27;20015;-77
2022/09/13 10:45:39;;;;;;;;;;;;;;;;;;5119819;27;20310;-77
2022/09/13 10:48:26;;;;;;;;;;;;;;;;;;5114323;27;19916;-77
2022/09/13 10:51:12;;;;;;;;;;;;;;;;;;5103685;27;19923;-80
2022/09/13 10:53:59;;;;;;;;;;;;;;;;;;5119635;27;20375;-76
2022/09/13 10:56:45;;;;;;;;;;;;;;;;;;5109737;27;19915;-77
2022/09/13 10:59:32;;;;;;;;;;;;;;;;;;5103172;27;19907;-78
2022/09/13 11:02:18;;;;;;;;;;;;;;;;;;5116783;27;19912;-78
2022/09/13 11:05:05;;;;;;;;;;;;;;;;;;5095754;27;19922;-76
2022/09/13 11:07:52;;;;;;;;;;;;;;;;;;5104065;27;19908;-77
2022/09/13 11:10:38;;;;;;;;;;;;;;;;;;5089837;28;19914;-76
2022/09/13 11:13:25;;;;;;;;;;;;;;;;;;5095439;27;19938;-77
2022/09/13 11:16:12;;;;;;;;;;;;;;;;;;5095865;27;19923;-78
2022/09/13 11:18:58;;;;;;;;;;;;;;;;;;5109719;27;19908;-77
2022/09/13 11:21:45;;;;;;;;;;;;;;;;;;5102193;27;19922;-78
2022/09/13 11:24:32;;;;;;;;;;;;;;;;;;5079293;28;19924;-77
2022/09/13 11:27:18;;;;;;;;;;;;;;;;;;5083056;28;20309;-77
2022/09/13 11:30:05;;;;;;;;;;;;;;;;;;5063401;28;19913;-78
2022/09/13 11:32:51;;;;;;;;;;;;;;;;;;5090808;28;19918;-77
2022/09/13 11:35:38;;;;;;;;;;;;;;;;;;5098335;28;20663;-77
2022/09/13 11:38:24;;;;;;;;;;;;;;;;;;5092639;28;19915;-78
2022/09/13 11:41:11;;;;;;;;;;;;;;;;;;5084917;28;19911;-78
2022/09/13 11:43:57;;;;;;;;;;;;;;;;;;5112479;28;19918;-77
2022/09/13 11:46:44;;;;;;;;;;;;;;;;;;5084501;28;19908;-78
2022/09/13 11:49:30;;;;;;;;;;;;;;;;;;5110561;28;19922;-78
2022/09/13 11:52:17;;;;;;;;;;;;;;;;;;5101025;28;19909;-77
2022/09/13 11:55:03;;;;;;;;;;;;;;;;;;5091610;28;19982;-77
2022/09/13 11:57:49;;;;;;;;;;;;;;;;;;5111151;28;19926;-76
2022/09/13 12:00:39;;;;;;;;;;;;;;;;;;5101117;28;19919;-76
2022/09/13 12:03:25;;;;;;;;;;;;;;;;;;5100109;28;19920;-76
2022/09/13 12:06:11;;;;;;;;;;;;;;;;;;5103505;28;20380;-77
2022/09/13 12:08:58;;;;;;;;;;;;;;;;;;5089595;28;19912;-77
2022/09/13 12:11:44;;;;;;;;;;;;;;;;;;5082071;28;19913;-77
2022/09/13 12:14:31;;;;;;;;;;;;;;;;;;5089876;28;19924;-77
2022/09/13 12:17:17;;;;;;;;;;;;;;;;;;5089260;28;19912;-76
2022/09/13 12:20:04;;;;;;;;;;;;;;;;;;5084308;28;19908;-77
2022/09/13 12:22:50;;;;;;;;;;;;;;;;;;5094890;28;19924;-77
2022/09/13 12:25:37;;;;;;;;;;;;;;;;;;5094812;28;19915;-77
2022/09/13 12:28:23;;;;;;;;;;;;;;;;;;5107653;28;19911;-77
2022/09/13 12:31:10;;;;;;;;;;;;;;;;;;5094631;28;19918;-77
2022/09/13 12:33:56;;;;;;;;;;;;;;;;;;5098120;28;19938;-76
2022/09/13 12:36:43;;;;;;;;;;;;;;;;;;5102582;27;19914;-76
2022/09/13 12:39:30;;;;;;;;;;;;;;;;;;5110938;28;20275;-76
2022/09/13 12:42:17;;;;;;;;;;;;;;;;;;5097558;28;19922;-78
2022/09/13 12:45:03;;;;;;;;;;;;;;;;;;5110763;27;19911;-78
2022/09/13 12:47:49;;;;;;;;;;;;;;;;;;5107036;28;19919;-77
2022/09/13 12:50:36;;;;;;;;;;;;;;;;;;5101599;28;19908;-77
2022/09/13 12:53:22;;;;;;;;;;;;;;;;;;5103976;28;19912;-77
2022/09/13 12:56:09;;;;;;;;;;;;;;;;;;5107668;27;19915;-76
2022/09/13 12:58:56;;;;;;;;;;;;;;;;;;5088803;28;20409;-76
2022/09/13 13:01:42;;;;;;;;;;;;;;;;;;5093575;27;19912;-76
2022/09/13 13:04:29;;;;;;;;;;;;;;;;;;5110023;27;19915;-77
2022/09/13 13:07:15;;;;;;;;;;;;;;;;;;5109377;27;19911;-76
2022/09/13 13:10:01;;;;;;;;;;;;;;;;;;5107368;28;19923;-76
2022/09/13 13:12:48;;;;;;;;;;;;;;;;;;5106321;27;19912;-76
2022/09/13 13:15:34;;;;;;;;;;;;;;;;;;5112858;27;19919;-77
2022/09/13 13:18:21;;;;;;;;;;;;;;;;;;5092747;28;20351;-77
2022/09/13 13:21:08;;;;;;;;;;;;;;;;;;5111486;28;19908;-77
2022/09/13 13:23:54;;;;;;;;;;;;;;;;;;5115121;27;19978;-78
2022/09/13 13:26:41;;;;;;;;;;;;;;;;;;5096821;28;20514;-78
2022/09/13 13:29:28;;;;;;;;;;;;;;;;;;5112642;28;19938;-77
2022/09/13 13:32:15;;;;;;;;;;;;;;;;;;5099289;27;20242;-78
2022/09/13 13:35:02;;;;;;;;;;;;;;;;;;5102090;28;19915;-78
2022/09/13 13:37:48;;;;;;;;;;;;;;;;;;5089730;28;19919;-77
2022/09/13 13:40:35;;;;;;;;;;;;;;;;;;5116169;27;19914;-77
2022/09/13 13:43:22;;;;;;;;;;;;;;;;;;5113490;28;19911;-78
2022/09/13 13:46:08;;;;;;;;;;;;;;;;;;5104910;28;19929;-78
2022/09/13 13:48:55;;;;;;;;;;;;;;;;;;5123163;27;19912;-77
2022/09/13 13:51:41;;;;;;;;;;;;;;;;;;5088542;28;19934;-77
2022/09/13 13:54:28;;;;;;;;;;;;;;;;;;5116542;27;20389;-79
2022/09/13 13:57:14;;;;;;;;;;;;;;;;;;5097691;28;19914;-78
2022/09/13 14:00:01;;;;;;;;;;;;;;;;;;5109427;28;19908;-78
2022/09/13 14:02:47;;;;;;;;;;;;;;;;;;5101792;27;19915;-78
2022/09/13 14:05:33;;;;;;;;;;;;;;;;;;5084580;28;19909;-78
2022/09/13 14:08:20;;;;;;;;;;;;;;;;;;5113879;27;19939;-79
2022/09/13 14:11:09;;;;;;;;;;;;;;;;;;5112333;27;19920;-78
2022/09/13 14:13:55;;;;;;;;;;;;;;;;;;5112229;27;19920;-78
2022/09/13 14:16:42;;;;;;;;;;;;;;;;;;5102006;28;19927;-78
2022/09/13 14:19:28;;;;;;;;;;;;;;;;;;5101927;28;19908;-77
2022/09/13 14:22:15;;;;;;;;;;;;;;;;;;5100638;28;19928;-77
2022/09/13 14:25:01;;;;;;;;;;;;;;;;;;5082182;28;19944;-78
2022/09/13 14:27:48;;;;;;;;;;;;;;;;;;5069519;28;20390;-78
2022/09/13 14:30:34;;;;;;;;;;;;;;;;;;5098459;28;19912;-78
2022/09/13 14:33:21;;;;;;;;;;;;;;;;;;5081998;28;20316;-78
2022/09/13 14:36:07;;;;;;;;;;;;;;;;;;5085453;28;19915;-78
2022/09/13 14:38:54;;;;;;;;;;;;;;;;;;5083839;28;20376;-78
2022/09/13 14:41:40;;;;;;;;;;;;;;;;;;5073916;28;19913;-78
2022/09/13 14:44:27;;;;;;;;;;;;;;;;;;5073215;28;20249;-77
2022/09/13 14:47:13;;;;;;;;;;;;;;;;;;5079847;28;20286;-79
2022/09/13 14:50:00;;;;;;;;;;;;;;;;;;5079513;28;20425;-77
2022/09/13 14:52:46;;;;;;;;;;;;;;;;;;5074936;28;19916;-77
2022/09/13 14:55:33;;;;;;;;;;;;;;;;;;5071137;28;19924;-78
2022/09/13 14:58:19;;;;;;;;;;;;;;;;;;5081731;28;20287;-78
2022/09/13 15:01:06;;;;;;;;;;;;;;;;;;5087184;28;19912;-77
2022/09/13 15:03:52;;;;;;;;;;;;;;;;;;5082683;28;20272;-78
2022/09/13 15:06:39;;;;;;;;;;;;;;;;;;5078275;28;19915;-77
2022/09/13 15:09:25;;;;;;;;;;;;;;;;;;5086918;28;19919;-78
2022/09/13 15:12:12;;;;;;;;;;;;;;;;;;5085149;28;19927;-78
2022/09/13 15:14:59;;;;;;;;;;;;;;;;;;5074364;28;19916;-77
2022/09/13 15:17:45;;;;;;;;;;;;;;;;;;5088186;28;19912;-77
2022/09/13 15:20:32;;;;;;;;;;;;;;;;;;5093101;28;19923;-78
2022/09/13 15:23:19;;;;;;;;;;;;;;;;;;5068932;28;19920;-78
2022/09/13 15:26:05;;;;;;;;;;;;;;;;;;5073153;28;19920;-78
2022/09/13 15:28:55;;;;;;;;;;;;;;;;;;5082196;28;19919;-78
2022/09/13 15:31:42;;;;;;;;;;;;;;;;;;5081630;28;19938;-78
2022/09/13 15:34:28;;;;;;;;;;;;;;;;;;5085247;28;19920;-79
2022/09/13 15:37:15;;;;;;;;;;;;;;;;;;5076740;28;19916;-79
2022/09/13 15:40:01;;;;;;;;;;;;;;;;;;5078780;28;19934;-79
2022/09/13 15:42:48;;;;;;;;;;;;;;;;;;5087150;28;19919;-79
2022/09/13 15:45:34;;;;;;;;;;;;;;;;;;5070376;28;19908;-79
2022/09/13 15:48:21;;;;;;;;;;;;;;;;;;5080895;28;20018;-79
2022/09/13 15:51:07;;;;;;;;;;;;;;;;;;5070481;28;19936;-79
2022/09/13 15:53:54;;;;;;;;;;;;;;;;;;5072408;28;19916;-79
2022/09/13 15:56:40;;;;;;;;;;;;;;;;;;5074789;28;19912;-79
2022/09/13 15:59:27;;;;;;;;;;;;;;;;;;5075994;28;20395;-79
2022/09/13 16:02:13;;;;;;;;;;;;;;;;;;5085447;28;19915;-79
2022/09/13 16:05:00;;;;;;;;;;;;;;;;;;5084831;28;19938;-79
2022/09/13 16:07:46;;;;;;;;;;;;;;;;;;5082100;28;19921;-79
2022/09/13 16:10:33;;;;;;;;;;;;;;;;;;5077004;28;20394;-79
2022/09/13 16:13:20;;;;;;;;;;;;;;;;;;5074690;28;19923;-78
2022/09/13 16:16:06;;;;;;;;;;;;;;;;;;5081727;28;19916;-79
2022/09/13 16:18:54;;;;;;;;;;;;;;;;;;5079362;28;19920;-82
2022/09/13 16:21:40;;;;;;;;;;;;;;;;;;5086388;28;19951;-81
2022/09/13 16:24:27;;;;;;;;;;;;;;;;;;5097455;28;20291;-83
2022/09/13 16:27:15;;;;;;;;;;;;;;;;;;5105417;28;19920;-80
2022/09/13 16:30:01;;;;;;;;;;;;;;;;;;5097709;28;19916;-80
2022/09/13 16:32:48;;;;;;;;;;;;;;;;;;5094224;28;19919;-80
2022/09/13 16:35:34;;;;;;;;;;;;;;;;;;5102963;28;19923;-81
2022/09/13 16:38:21;;;;;;;;;;;;;;;;;;5105098;28;19908;-80
2022/09/13 16:41:07;;;;;;;;;;;;;;;;;;5103962;28;19922;-80
2022/09/13 16:43:54;;;;;;;;;;;;;;;;;;5111566;28;19924;-81
2022/09/13 16:46:40;;;;;;;;;;;;;;;;;;5109407;28;19926;-81
2022/09/13 16:49:27;;;;;;;;;;;;;;;;;;5098244;28;19931;-81
2022/09/13 16:52:13;;;;;;;;;;;;;;;;;;5094770;28;19919;-81
2022/09/13 16:55:00;;;;;;;;;;;;;;;;;;5105585;28;20393;-81
2022/09/13 16:57:49;;;;;;;;;;;;;;;;;;5103738;28;19916;-81
2022/09/13 17:00:35;;;;;;;;;;;;;;;;;;5101357;28;19919;-80
2022/09/13 17:03:21;;;;;;;;;;;;;;;;;;5103092;28;20508;-76
2022/09/13 17:06:08;;;;;;;;;;;;;;;;;;5099067;28;19919;-78
2022/09/13 17:08:54;;;;;;;;;;;;;;;;;;5092348;28;19920;-78
2022/09/13 17:11:41;;;;;;;;;;;;;;;;;;5104640;28;19915;-78
2022/09/13 17:14:27;;;;;;;;;;;;;;;;;;5111955;28;19924;-78
2022/09/13 17:17:17;;;;;;;;;;;;;;;;;;5099745;28;19911;-77
2022/09/13 17:20:04;;;;;;;;;;;;;;;;;;5113109;28;19911;-77
2022/09/13 17:22:51;;;;;;;;;;;;;;;;;;5115782;27;19930;-78
2022/09/13 17:25:37;;;;;;;;;;;;;;;;;;5107235;27;19921;-79
2022/09/13 17:28:24;;;;;;;;;;;;;;;;;;5097623;28;19916;-78
2022/09/13 17:31:10;;;;;;;;;;;;;;;;;;5114119;27;19916;-77
2022/09/13 17:33:57;;;;;;;;;;;;;;;;;;5116258;27;19934;-78
2022/09/13 17:36:43;;;;;;;;;;;;;;;;;;5122456;27;19912;-77
2022/09/13 17:39:30;;;;;;;;;;;;;;;;;;5101135;27;19912;-79
2022/09/13 17:42:16;;;;;;;;;;;;;;;;;;5100712;27;19908;-78
2022/09/13 17:45:03;;;;;;;;;;;;;;;;;;5108372;27;19915;-78
2022/09/13 17:47:49;;;;;;;;;;;;;;;;;;5117507;27;19908;-80
2022/09/13 17:50:36;;;;;;;;;;;;;;;;;;5111786;27;20408;-78
2022/09/13 17:53:23;;;;;;;;;;;;;;;;;;5107714;27;20382;-79
2022/09/13 17:56:09;;;;;;;;;;;;;;;;;;5095048;28;19924;-76
2022/09/13 17:58:56;;;;;;;;;;;;;;;;;;5107597;27;19916;-78
2022/09/13 18:01:42;;;;;;;;;;;;;;;;;;5105041;27;19930;-78
2022/09/13 18:04:29;;;;;;;;;;;;;;;;;;5117093;27;19930;-77
2022/09/13 18:07:16;;;;;;;;;;;;;;;;;;5128509;27;19912;-78
2022/09/13 18:10:04;;;;;;;;;;;;;;;;;;5122756;27;19915;-79
2022/09/13 18:12:51;;;;;;;;;;;;;;;;;;5120442;27;19912;-79
2022/09/13 18:15:37;;;;;;;;;;;;;;;;;;5115564;27;19922;-77
2022/09/13 18:18:24;;;;;;;;;;;;;;;;;;5112097;27;19916;-79
2022/09/13 18:21:13;;;;;;;;;;;;;;;;;;5100097;28;19920;-81
2022/09/13 18:24:02;;;;;;;;;;;;;;;;;;5107671;27;19922;-81
2022/09/13 18:26:49;;;;;;;;;;;;;;;;;;5108203;27;20390;-83
2022/09/13 18:29:36;;;;;;;;;;;;;;;;;;5087432;28;20345;-83
2022/09/13 18:32:22;;;;;;;;;;;;;;;;;;5108047;27;19922;-82
2022/09/13 18:35:09;;;;;;;;;;;;;;;;;;5106746;27;19915;-82
2022/09/13 18:37:56;;;;;;;;;;;;;;;;;;5093295;27;19926;-83
2022/09/13 18:40:42;;;;;;;;;;;;;;;;;;5103887;27;19926;-85
2022/09/13 18:43:29;;;;;;;;;;;;;;;;;;5098080;27;19916;-80
2022/09/13 18:46:15;;;;;;;;;;;;;;;;;;5105847;28;19916;-81
2022/09/13 18:49:02;;;;;;;;;;;;;;;;;;5095486;28;19913;-81
2022/09/13 18:51:48;;;;;;;;;;;;;;;;;;5110365;27;19916;-80
2022/09/13 18:54:35;;;;;;;;;;;;;;;;;;5117812;27;19916;-81
2022/09/13 18:57:21;;;;;;;;;;;;;;;;;;5097069;28;19911;-82
2022/09/13 19:00:08;;;;;;;;;;;;;;;;;;5101918;28;19920;-80